»·PEaware :: N212MH KALW-8W5

N212MH :: KALW-8W5

FLIGHT INFORMATION

Flight Status: Arrived
Operator: Privately registered:
United States
More flights under this callsign
Pilot: Erik A. (17503)
Aircraft: AERMACCHI WARRIOR
(F260)
More flights by this aircraft type
Origin: KALW Walla Walla Regl
United States
Destination: 8W5 Apex Airpark
United States
More flights between these airports :: More routes between these airports
Route:
File this flight plan on PilotEdge
Remarks: Alphabet Challenge Washington Leg #23
Altitude:
(Current/Filed)
5,500ft
Speed:
(Current/Filed)
150kts
Departed: 02-Oct-20 12:35 PM
Arrived: 02-Oct-20 04:11 PM
Distance/Time
Traveled:
205nm/3:35
Distance/Time
To Go:
Arrived

Flight Plot

Page will automatically refresh every two minutes.

Flight plan parsing failed; only flown route is shown


Map Options




Map Legend


Flown Route
Filed Route
Departure Airport
Arrival Airport
Navaid (VOR, NDB)
Fix

Horizontal Profiles

Position Reports

Time Latitude Longitude Heading Altitude Ground
Speed
02-Oct-20 11:52 46.092254 -118.280792 127 1191ft 0kts
02-Oct-20 11:53 46.092254 -118.280792 127 1191ft 0kts
02-Oct-20 11:54 46.092254 -118.280792 127 1191ft 0kts
02-Oct-20 11:55 46.092254 -118.280792 127 1191ft 0kts
02-Oct-20 11:56 46.092254 -118.280792 127 1191ft 0kts
02-Oct-20 11:57 46.092254 -118.280792 127 1191ft 0kts
02-Oct-20 11:58 46.092254 -118.280792 127 1191ft 0kts
02-Oct-20 11:59 46.092254 -118.280792 127 1191ft 0kts
02-Oct-20 12:00 46.092254 -118.280792 127 1191ft 0kts
02-Oct-20 12:01 46.092254 -118.280792 127 1191ft 0kts
02-Oct-20 12:02 46.092254 -118.280792 127 1191ft 0kts
02-Oct-20 12:03 46.092254 -118.280792 127 1191ft 0kts
02-Oct-20 12:04 46.092254 -118.280792 127 1191ft 0kts
02-Oct-20 12:05 46.092254 -118.280792 127 1191ft 0kts
02-Oct-20 12:06 46.092254 -118.280792 127 1191ft 0kts
02-Oct-20 12:07 46.092254 -118.280792 127 1191ft 0kts
02-Oct-20 12:08 46.092254 -118.280792 127 1191ft 0kts
02-Oct-20 12:09 46.092254 -118.280792 127 1191ft 0kts
02-Oct-20 12:10 46.092254 -118.280792 127 1191ft 0kts
02-Oct-20 12:11 46.092254 -118.280792 127 1191ft 0kts
02-Oct-20 12:12 46.092254 -118.280792 127 1191ft 0kts
02-Oct-20 12:13 46.092254 -118.280792 127 1191ft 0kts
02-Oct-20 12:14 46.092254 -118.280792 127 1191ft 0kts
02-Oct-20 12:15 46.092254 -118.280792 127 1191ft 0kts
02-Oct-20 12:16 46.092254 -118.280792 127 1191ft 0kts
02-Oct-20 12:17 46.092254 -118.280792 127 1191ft 0kts
02-Oct-20 12:18 46.092254 -118.280792 127 1191ft 0kts
02-Oct-20 12:19 46.092254 -118.280792 127 1191ft 0kts
02-Oct-20 12:20 46.092254 -118.280792 127 1191ft 0kts
02-Oct-20 12:21 46.092254 -118.280792 127 1191ft 0kts
02-Oct-20 12:22 46.092254 -118.280792 127 1191ft 0kts
02-Oct-20 12:23 46.092254 -118.280792 127 1191ft 0kts
02-Oct-20 12:24 46.092254 -118.280792 127 1191ft 0kts
02-Oct-20 12:25 46.092250 -118.280783 125 1191ft 0kts
02-Oct-20 12:26 46.091049 -118.282536 245 1185ft 11kts
02-Oct-20 12:27 46.088451 -118.285710 213 1176ft 13kts
02-Oct-20 12:28 46.085368 -118.288892 216 1166ft 14kts
02-Oct-20 12:29 46.084126 -118.291568 272 1157ft 0kts
02-Oct-20 12:30 46.084126 -118.291568 272 1157ft 0kts
02-Oct-20 12:31 46.084126 -118.291568 272 1157ft 0kts
02-Oct-20 12:32 46.084126 -118.291568 272 1157ft 0kts
02-Oct-20 12:33 46.084127 -118.291613 271 1157ft 3kts
02-Oct-20 12:34 46.093904 -118.282296 37 1314ft 99kts
02-Oct-20 12:35 46.114760 -118.260229 33 2654ft 90kts
02-Oct-20 12:36 46.134768 -118.235918 31 3764ft 99kts
02-Oct-20 12:37 46.162739 -118.205419 29 4116ft 136kts
02-Oct-20 12:38 46.201344 -118.184746 21 4006ft 157kts
02-Oct-20 12:39 46.239626 -118.155527 26 4063ft 154kts
02-Oct-20 12:40 46.275548 -118.125780 74 4074ft 157kts
02-Oct-20 12:41 46.280218 -118.064931 86 4003ft 146kts
02-Oct-20 12:42 46.295195 -118.011833 50 3894ft 145kts
02-Oct-20 12:43 46.321818 -117.967850 38 3736ft 149kts
02-Oct-20 12:44 46.340835 -117.922546 107 3755ft 144kts
02-Oct-20 12:45 46.333274 -117.870694 43 3989ft 128kts
02-Oct-20 12:47 46.339374 -117.913777 269 3778ft 138kts
02-Oct-20 12:48 46.321775 -117.959325 210 3796ft 138kts
02-Oct-20 12:49 46.323314 -117.979417 58 3604ft 145kts
02-Oct-20 12:50 46.346125 -117.963980 262 3602ft 138kts
02-Oct-20 12:51 46.327780 -118.010835 228 3781ft 126kts
02-Oct-20 12:52 46.323782 -117.979162 10 3188ft 154kts
02-Oct-20 12:53 46.353911 -117.955875 44 3633ft 129kts
02-Oct-20 12:54 46.386553 -117.933007 19 3719ft 132kts
02-Oct-20 12:55 46.422657 -117.937121 349 3716ft 137kts
02-Oct-20 12:56 46.459985 -117.945949 350 3794ft 133kts
02-Oct-20 12:57 46.497700 -117.953745 344 3711ft 142kts
02-Oct-20 12:58 46.497804 -117.969542 88 3998ft 113kts
02-Oct-20 12:59 46.519536 -117.924349 52 3693ft 141kts
02-Oct-20 13:00 46.535923 -117.875115 103 3743ft 137kts
02-Oct-20 13:00 46.522518 -117.832611 107 3731ft 140kts
02-Oct-20 13:02 46.519919 -117.773432 25 3914ft 128kts
02-Oct-20 13:03 46.556422 -117.764931 353 3839ft 137kts
02-Oct-20 13:03 46.588249 -117.771688 347 3839ft 135kts
02-Oct-20 13:04 46.624298 -117.786175 339 3860ft 135kts
02-Oct-20 13:06 46.666397 -117.803813 339 3940ft 132kts
02-Oct-20 13:06 46.695963 -117.818056 336 3941ft 134kts
02-Oct-20 13:07 46.729152 -117.843305 329 3957ft 134kts
02-Oct-20 13:08 46.760587 -117.872936 319 3981ft 134kts
02-Oct-20 13:09 46.790744 -117.907586 320 3997ft 134kts
02-Oct-20 13:10 46.825644 -117.924865 352 3996ft 136kts
02-Oct-20 13:11 46.862585 -117.934988 343 4006ft 136kts
02-Oct-20 13:12 46.900005 -117.939994 13 3991ft 141kts
02-Oct-20 13:13 46.934412 -117.950236 309 4144ft 133kts
02-Oct-20 13:14 46.928759 -118.000177 232 3937ft 140kts
02-Oct-20 13:15 46.911044 -117.987702 66 4002ft 135kts
02-Oct-20 13:16 46.934264 -117.982368 259 3890ft 141kts
02-Oct-20 13:17 46.912206 -117.971182 61 4025ft 126kts
02-Oct-20 13:18 46.933766 -117.983110 235 4150ft 121kts
02-Oct-20 13:19 46.910511 -118.024986 239 4085ft 132kts
02-Oct-20 13:20 46.890798 -118.071618 241 4067ft 135kts
02-Oct-20 13:21 46.876191 -118.121926 249 4079ft 136kts
02-Oct-20 13:22 46.861793 -118.173272 247 4060ft 137kts
02-Oct-20 13:23 46.848356 -118.224271 252 4141ft 133kts
02-Oct-20 13:24 46.851964 -118.274960 306 4081ft 137kts
02-Oct-20 13:25 46.872160 -118.321479 242 4041ft 132kts
02-Oct-20 13:26 46.860727 -118.373025 250 4134ft 133kts
02-Oct-20 13:27 46.847719 -118.427180 253 3885ft 147kts
02-Oct-20 13:28 46.845100 -118.479315 302 5024ft 134kts
02-Oct-20 13:29 46.874970 -118.526181 314 4958ft 166kts
02-Oct-20 13:30 46.905822 -118.573548 310 4839ft 155kts
02-Oct-20 13:31 46.934003 -118.618015 314 5033ft 147kts
02-Oct-20 13:32 46.963557 -118.661856 313 5019ft 154kts
02-Oct-20 13:33 46.992862 -118.706782 309 4910ft 154kts
02-Oct-20 13:34 47.018665 -118.751744 308 5072ft 141kts
02-Oct-20 13:35 47.044943 -118.795174 308 5074ft 144kts
02-Oct-20 13:36 47.069652 -118.841398 307 5086ft 142kts
02-Oct-20 13:37 47.094275 -118.887682 304 5048ft 144kts
02-Oct-20 13:38 47.120209 -118.934405 312 4941ft 149kts
02-Oct-20 13:39 47.149108 -118.976286 309 5030ft 138kts
02-Oct-20 13:40 47.176043 -119.019317 309 4996ft 144kts
02-Oct-20 13:41 47.200706 -119.065418 306 4996ft 145kts
02-Oct-20 13:42 47.227112 -119.111350 312 4901ft 147kts
02-Oct-20 13:43 47.254603 -119.156770 308 4824ft 147kts
02-Oct-20 13:44 47.281195 -119.201009 311 4894ft 143kts
02-Oct-20 13:45 47.309459 -119.243042 318 4920ft 142kts
02-Oct-20 13:46 47.337346 -119.284306 306 4943ft 144kts
02-Oct-20 13:47 47.364192 -119.329722 311 4865ft 147kts
02-Oct-20 13:48 47.395946 -119.362733 344 4840ft 148kts
02-Oct-20 13:49 47.433939 -119.381390 341 4939ft 143kts
02-Oct-20 13:50 47.472056 -119.400071 341 5008ft 141kts
02-Oct-20 13:51 47.510971 -119.417015 341 5007ft 148kts
02-Oct-20 13:52 47.550403 -119.435999 341 5060ft 147kts
02-Oct-20 13:53 47.589361 -119.456203 340 5094ft 148kts
02-Oct-20 13:54 47.628894 -119.474398 340 5176ft 150kts
02-Oct-20 13:55 47.669875 -119.495076 343 5194ft 156kts
02-Oct-20 13:56 47.711417 -119.512598 340 5103ft 152kts
02-Oct-20 13:57 47.751957 -119.534460 339 4978ft 153kts
02-Oct-20 13:58 47.792722 -119.555394 341 4865ft 154kts
02-Oct-20 13:59 47.805931 -119.599548 247 5010ft 146kts
02-Oct-20 14:00 47.791086 -119.656622 249 5017ft 146kts
02-Oct-20 14:01 47.775994 -119.712829 248 5185ft 145kts
02-Oct-20 14:02 47.761417 -119.770854 248 5182ft 154kts
02-Oct-20 14:03 47.746267 -119.828213 251 5370ft 144kts
02-Oct-20 14:04 47.735217 -119.887775 249 5191ft 155kts
02-Oct-20 14:05 47.713951 -119.944295 238 5146ft 153kts
02-Oct-20 14:06 47.687239 -119.996788 212 4672ft 154kts
02-Oct-20 14:07 47.653651 -120.006494 224 4300ft 101kts
02-Oct-20 14:08 47.646353 -120.036718 39 3748ft 96kts
02-Oct-20 14:09 47.655535 -120.024202 268 3195ft 100kts
02-Oct-20 14:10 47.655985 -120.059813 273 2643ft 18kts
02-Oct-20 14:11 47.655035 -120.059852 76 2643ft 6kts
02-Oct-20 14:12 47.655151 -120.059750 355 2643ft 0kts
02-Oct-20 14:13 47.655151 -120.059750 355 2643ft 0kts
02-Oct-20 14:14 47.655151 -120.059750 355 2643ft 0kts
02-Oct-20 14:15 47.655151 -120.059750 355 2643ft 0kts
02-Oct-20 14:16 47.655151 -120.059750 355 2643ft 0kts
02-Oct-20 14:17 47.655151 -120.059750 355 2643ft 0kts
02-Oct-20 14:18 47.655151 -120.059750 355 2643ft 0kts
02-Oct-20 14:19 47.655151 -120.059750 355 2643ft 0kts
02-Oct-20 14:20 47.655151 -120.059750 355 2643ft 0kts
02-Oct-20 14:21 47.655151 -120.059750 355 2643ft 0kts
02-Oct-20 14:22 47.655151 -120.059750 355 2643ft 0kts
02-Oct-20 14:23 47.655151 -120.059750 355 2643ft 0kts
02-Oct-20 14:24 47.655151 -120.059750 355 2643ft 0kts
02-Oct-20 14:25 47.655151 -120.059750 355 2643ft 0kts
02-Oct-20 14:26 47.655151 -120.059750 355 2643ft 0kts
02-Oct-20 14:27 47.655151 -120.059750 355 2643ft 0kts
02-Oct-20 14:28 47.655151 -120.059750 355 2643ft 0kts
02-Oct-20 14:29 47.655151 -120.059750 355 2643ft 0kts
02-Oct-20 14:30 47.655151 -120.059750 355 2643ft 0kts
02-Oct-20 14:31 47.655151 -120.059750 355 2643ft 0kts
02-Oct-20 14:32 47.655151 -120.059750 355 2643ft 0kts
02-Oct-20 14:33 47.655151 -120.059750 355 2643ft 0kts
02-Oct-20 14:34 47.655151 -120.059750 355 2643ft 0kts
02-Oct-20 14:35 47.655151 -120.059750 355 2643ft 0kts
02-Oct-20 14:36 47.655151 -120.059750 355 2643ft 0kts
02-Oct-20 14:37 47.655336 -120.060367 344 2643ft 7kts
02-Oct-20 14:38 47.655992 -120.056093 92 2643ft 23kts
02-Oct-20 14:40 47.656021 -120.052272 86 2643ft 11kts
02-Oct-20 14:41 47.655963 -120.051701 269 2643ft 0kts
02-Oct-20 14:42 47.656528 -120.077646 270 3272ft 105kts
02-Oct-20 14:43 47.657839 -120.127629 267 4233ft 130kts
02-Oct-20 14:44 47.649366 -120.182273 251 4185ft 135kts
02-Oct-20 14:45 47.628118 -120.227416 199 4093ft 138kts
02-Oct-20 14:46 47.592469 -120.249431 211 4040ft 137kts
02-Oct-20 14:47 47.559162 -120.278352 205 3993ft 139kts
02-Oct-20 14:48 47.523682 -120.299209 199 3996ft 137kts
02-Oct-20 14:49 47.490668 -120.325486 232 4103ft 128kts
02-Oct-20 14:50 47.493876 -120.380041 289 3983ft 139kts
02-Oct-20 14:51 47.512341 -120.430520 298 3951ft 139kts
02-Oct-20 14:52 47.529375 -120.483139 293 3927ft 139kts
02-Oct-20 14:53 47.544962 -120.537152 298 3870ft 141kts
02-Oct-20 14:53 47.564680 -120.575740 318 3844ft 140kts
02-Oct-20 14:55 47.598747 -120.617827 315 4024ft 135kts
02-Oct-20 14:56 47.632697 -120.637864 0 4142ft 132kts
02-Oct-20 14:56 47.664777 -120.640888 1 4076ft 140kts
02-Oct-20 14:58 47.709643 -120.635218 359 4278ft 130kts
02-Oct-20 14:59 47.747149 -120.640761 350 4325ft 134kts
02-Oct-20 14:59 47.778063 -120.649252 350 4388ft 135kts
02-Oct-20 15:00 47.810600 -120.682700 291 3393ft 180kts
02-Oct-20 15:01 47.819213 -120.739308 183 2973ft 102kts
02-Oct-20 15:02 47.808150 -120.704227 74 2672ft 85kts
02-Oct-20 15:03 47.820082 -120.722628 286 1936ft 87kts
02-Oct-20 15:04 47.812444 -120.737442 112 3245ft 111kts
02-Oct-20 15:05 47.809477 -120.695378 8 4551ft 129kts
02-Oct-20 15:06 47.826440 -120.734551 252 5809ft 130kts
02-Oct-20 15:07 47.803247 -120.722195 106 6960ft 127kts
02-Oct-20 15:08 47.806150 -120.676617 349 7974ft 130kts
02-Oct-20 15:09 47.819981 -120.728566 283 8347ft 159kts
02-Oct-20 15:10 47.831558 -120.794685 283 8502ft 167kts
02-Oct-20 15:11 47.842347 -120.863215 281 8409ft 171kts
02-Oct-20 15:12 47.853517 -120.929903 282 8317ft 161kts
02-Oct-20 15:13 47.863946 -120.992173 283 8453ft 149kts
02-Oct-20 15:14 47.874699 -121.053607 285 8428ft 151kts
02-Oct-20 15:15 47.883992 -121.115547 281 8398ft 151kts
02-Oct-20 15:16 47.894250 -121.177881 282 8354ft 150kts
02-Oct-20 15:17 47.901445 -121.237735 277 8500ft 145kts
02-Oct-20 15:18 47.911195 -121.296955 285 8524ft 148kts
02-Oct-20 15:19 47.920071 -121.359691 279 8473ft 153kts
02-Oct-20 15:20 47.928738 -121.424274 281 8413ft 154kts
02-Oct-20 15:21 47.939660 -121.486475 284 8379ft 151kts
02-Oct-20 15:22 47.949577 -121.549554 282 8165ft 154kts
02-Oct-20 15:23 47.959090 -121.609830 284 8147ft 146kts
02-Oct-20 15:24 47.965068 -121.671299 262 7929ft 151kts
02-Oct-20 15:25 47.946161 -121.715867 253 8918ft 112kts
02-Oct-20 15:26 47.931614 -121.730500 76 9175ft 149kts
02-Oct-20 15:27 47.950820 -121.750641 261 9660ft 146kts
02-Oct-20 15:28 47.934525 -121.817135 246 8750ft 189kts
02-Oct-20 15:29 47.910051 -121.894097 240 5985ft 207kts
02-Oct-20 15:30 47.883403 -121.973973 249 2502ft 218kts
02-Oct-20 15:31 47.860354 -122.025896 283 2278ft 117kts
02-Oct-20 15:32 47.871664 -122.009100 67 605ft 99kts
02-Oct-20 15:33 47.871053 -121.992082 266 52ft 7kts
02-Oct-20 15:34 47.871129 -121.992211 348 52ft 0kts
02-Oct-20 15:35 47.871129 -121.992210 348 52ft 0kts
02-Oct-20 15:36 47.871129 -121.992210 348 52ft 0kts
02-Oct-20 15:37 47.871129 -121.992210 348 52ft 0kts
02-Oct-20 15:38 47.871129 -121.992210 348 52ft 0kts
02-Oct-20 15:39 47.871129 -121.992210 348 52ft 0kts
02-Oct-20 15:40 47.871129 -121.992210 348 52ft 0kts
02-Oct-20 15:41 47.871129 -121.992210 348 52ft 0kts
02-Oct-20 15:42 47.871129 -121.992210 348 52ft 0kts
02-Oct-20 15:43 47.871129 -121.992210 348 52ft 0kts
02-Oct-20 15:44 47.871129 -121.992210 348 52ft 0kts
02-Oct-20 15:45 47.871129 -121.992210 348 52ft 0kts
02-Oct-20 15:46 47.871129 -121.992210 348 52ft 0kts
02-Oct-20 15:47 47.871129 -121.992210 348 52ft 0kts
02-Oct-20 15:48 47.871129 -121.992210 348 52ft 0kts
02-Oct-20 15:49 47.871129 -121.992210 348 52ft 0kts
02-Oct-20 15:50 47.871080 -121.991865 113 52ft 8kts
02-Oct-20 15:51 47.871284 -121.992659 270 52ft 39kts
02-Oct-20 15:52 47.884199 -122.016369 327 1180ft 89kts
02-Oct-20 15:53 47.906611 -122.042279 322 2542ft 125kts
02-Oct-20 15:54 47.934788 -122.084585 277 3007ft 144kts
02-Oct-20 15:55 47.931295 -122.151837 261 2684ft 167kts
02-Oct-20 15:56 47.921176 -122.220438 255 2686ft 172kts
02-Oct-20 15:57 47.911433 -122.287961 260 2523ft 153kts
02-Oct-20 15:58 47.902483 -122.346994 255 2675ft 152kts
02-Oct-20 15:59 47.893106 -122.411293 259 2714ft 163kts
02-Oct-20 16:00 47.879940 -122.476889 254 2601ft 163kts
02-Oct-20 16:01 47.865583 -122.540318 252 2560ft 159kts
02-Oct-20 16:02 47.848434 -122.600613 225 2638ft 156kts
02-Oct-20 16:03 47.812223 -122.635715 199 2628ft 154kts
02-Oct-20 16:04 47.770496 -122.653210 188 2499ft 155kts
02-Oct-20 16:05 47.727469 -122.658903 184 2356ft 158kts
02-Oct-20 16:06 47.684547 -122.668312 190 2322ft 151kts
02-Oct-20 16:07 47.648374 -122.679059 196 2445ft 95kts
02-Oct-20 16:08 47.633602 -122.705247 272 1462ft 86kts
02-Oct-20 16:09 47.641118 -122.736028 358 973ft 84kts
02-Oct-20 16:10 47.658547 -122.732769 6 530ft 27kts
02-Oct-20 16:11 47.659877 -122.733004 169 524ft 0kts
02-Oct-20 16:12 47.659877 -122.733004 169 524ft 0kts
02-Oct-20 16:13 47.659877 -122.733004 169 524ft 0kts
02-Oct-20 16:14 47.659877 -122.733004 169 524ft 0kts
02-Oct-20 16:15 47.659877 -122.733004 169 524ft 0kts
02-Oct-20 16:16 47.659877 -122.733004 169 524ft 0kts
02-Oct-20 16:17 47.659877 -122.733004 169 524ft 0kts
02-Oct-20 16:18 47.659877 -122.733004 169 524ft 0kts
02-Oct-20 16:19 47.659877 -122.733004 169 524ft 0kts
02-Oct-20 16:20 47.659877 -122.733004 169 524ft 0kts
02-Oct-20 16:21 47.659877 -122.733004 169 524ft 0kts
02-Oct-20 16:22 47.659877 -122.733004 169 524ft 0kts
02-Oct-20 16:23 47.659877 -122.733004 169 524ft 0kts
02-Oct-20 16:24 47.659877 -122.733004 169 524ft 0kts

Navigation Log

Ident Type
Flight plan parsing failed, navigation log unavailable